Romy Trader — ZDJX5 — position and weather

sailwx.info

Track history (hours):
 
Tides and Currents Weather Stations Pressure Air Temp Water Temp Dewpoint Dewpoint Depression Visibility Wind Speed Wind Dir Waves Ship Positions

Romy Trader

Last reported at 2017-Nov-12 20:27 UTC. Time now 2017-Nov-18 10:31 UTC.
Position N 31°33' W 011°54'.

Length 132 m; draft 5.5 m.

Type: Ship. MMSI: 236576000.

Date/timePositionNaut miles runAvg speedWind from/ knotsBaromVisibWave heightAir tempDewpointWater temp
2017-Nov-12 20:27N 31°33' W 011°54'4112.1
2017-Nov-12 17:04N 31°02' W 012°26'112.4
2017-Nov-12 17:00N 31°02' W 012°27'612.3
2017-Nov-12 16:30N 30°57' W 012°31'812.4
2017-Nov-12 15:53N 30°51' W 012°37'3512.5
2017-Nov-12 13:05N 30°25' W 013°04'312.6
2017-Nov-12 12:50N 30°23' W 013°07'412.4
2017-Nov-12 12:30N 30°20' W 013°10'612.4
2017-Nov-12 12:00N 30°16' W 013°15'612.5
2017-Nov-12 11:30N 30°11' W 013°19'612.7
2017-Nov-12 11:00N 30°06' W 013°24'712.7
2017-Nov-12 10:28N 30°00' W 013°29'612.9
2017-Nov-12 10:00N 29°56' W 013°33'4212.6
2017-Nov-12 06:42N 29°25' W 014°05'312.4
2017-Nov-12 06:30N 29°23' W 014°07'612.4
2017-Nov-12 06:00N 29°18' W 014°12'612.1
2017-Nov-12 05:30N 29°14' W 014°17'611.8
2017-Nov-12 05:00N 29°09' W 014°21'611.8
2017-Nov-12 04:30N 29°05' W 014°25'712.1
2017-Nov-12 03:58N 28°60' W 014°30'612.0
2017-Nov-12 03:30N 28°56' W 014°35'611.4
2017-Nov-12 03:00N 28°52' W 014°39'611.5
2017-Nov-12 02:30N 28°47' W 014°43'611.3
2017-Nov-12 02:00N 28°43' W 014°48'611.3
2017-Nov-12 01:30N 28°39' W 014°52'611.2
2017-Nov-12 01:00N 28°35' W 014°56'611.6
2017-Nov-12 00:30N 28°30' W 015°00'611.6
2017-Nov-12 00:00N 28°26' W 015°05'611.9
2017-Nov-11 23:30N 28°21' W 015°09'611.9
2017-Nov-11 23:00N 28°17' W 015°14'611.9
2017-Nov-11 22:30N 28°12' W 015°18'612.1
2017-Nov-11 22:00N 28°08' W 015°23'2 3.3
2017-Nov-11 21:19N 28°09' W 015°25'0 0.0
2017-Nov-11 20:49N 28°09' W 015°25'0 0.0
2017-Nov-11 20:16N 28°09' W 015°25'0 0.0
2017-Nov-11 19:52N 28°09' W 015°25'0 0.0
2017-Nov-11 19:22N 28°09' W 015°25'0 0.0
2017-Nov-11 18:52N 28°09' W 015°25'0 0.0
2017-Nov-11 18:22N 28°09' W 015°25'0 0.0
2017-Nov-11 17:52N 28°09' W 015°25'0 0.0
2017-Nov-11 17:22N 28°09' W 015°25'0 0.0
2017-Nov-11 16:55N 28°09' W 015°25'0 0.0
2017-Nov-11 16:25N 28°09' W 015°25'0 0.0
2017-Nov-11 15:55N 28°09' W 015°25'0 0.0
2017-Nov-11 15:25N 28°09' W 015°25'0 0.0
2017-Nov-11 14:55N 28°09' W 015°25'0 0.0
2017-Nov-11 14:25N 28°09' W 015°25'0 0.0
2017-Nov-11 13:58N 28°09' W 015°25'0 0.0
2017-Nov-11 13:28N 28°09' W 015°25'0 0.0
2017-Nov-11 12:58N 28°09' W 015°25'0 0.0
2017-Nov-11 12:28N 28°09' W 015°25'0 0.0
2017-Nov-11 11:58N 28°09' W 015°25'0 0.0
2017-Nov-11 11:28N 28°09' W 015°25'0 0.0
2017-Nov-11 10:58N 28°09' W 015°25'0 0.0
2017-Nov-11 10:28N 28°09' W 015°25'0 0.0
2017-Nov-11 09:58N 28°09' W 015°25'0 0.0
2017-Nov-11 09:28N 28°09' W 015°25'0 0.0
2017-Nov-11 08:58N 28°09' W 015°25'0 0.0
2017-Nov-11 08:28N 28°09' W 015°25'0 0.0
2017-Nov-11 07:59N 28°09' W 015°25'1 2.5
2017-Nov-11 07:30N 28°08' W 015°25'3 6.0
2017-Nov-11 07:00N 28°06' W 015°22'1 1.8
2017-Nov-11 06:30N 28°07' W 015°21'4 7.0
2017-Nov-11 06:00N 28°10' W 015°22'4 8.0
2017-Nov-11 05:30N 28°13' W 015°26'510.7
2017-Nov-11 05:01N 28°14' W 015°31'5 9.2
2017-Nov-11 04:31N 28°15' W 015°36'5 9.0
2017-Nov-11 04:00N 28°17' W 015°41'4 8.8
2017-Nov-11 03:30N 28°18' W 015°46'4 8.9
2017-Nov-11 03:00N 28°20' W 015°51'5 9.6
2017-Nov-11 02:30N 28°21' W 015°56'510.0
2017-Nov-11 02:00N 28°23' W 016°01'5 9.7
2017-Nov-11 01:30N 28°25' W 016°06'5 9.4
2017-Nov-11 01:00N 28°27' W 016°11'3 0.6
2017-Nov-10 20:07N 28°29' W 016°14'2510.4
2017-Nov-10 17:41N 28°36' W 015°46'314.1
2017-Nov-10 17:30N 28°38' W 015°44'714.2
2017-Nov-10 17:01N 28°43' W 015°39'714.2
2017-Nov-10 16:30N 28°48' W 015°33'714.0
2017-Nov-10 16:00N 28°53' W 015°27'713.9
2017-Nov-10 15:30N 28°58' W 015°22'713.8
2017-Nov-10 14:58N 29°04' W 015°16'2314.0
2017-Nov-10 13:18N 29°21' W 014°58'814.0
2017-Nov-10 12:45N 29°26' W 014°52'714.1
2017-Nov-10 12:17N 29°31' W 014°46'414.1
2017-Nov-10 12:00N 29°34' W 014°43'814.1
2017-Nov-10 11:28N 29°39' W 014°37'714.2
2017-Nov-10 11:00N 29°44' W 014°32'914.3
2017-Nov-10 10:24N 29°50' W 014°25'614.2
2017-Nov-10 10:00N 29°54' W 014°20'714.1
2017-Nov-10 09:31N 29°59' W 014°14'1014.1
2017-Nov-10 08:49N 30°05' W 014°06'614.1
2017-Nov-10 08:25N 30°10' W 014°02'614.1
2017-Nov-10 08:00N 30°14' W 013°57'714.1
2017-Nov-10 07:30N 30°19' W 013°52'714.1
2017-Nov-10 07:00N 30°24' W 013°46'714.5
2017-Nov-10 06:30N 30°29' W 013°40'814.6
2017-Nov-10 05:59N 30°35' W 013°34'714.8
2017-Nov-10 05:29N 30°40' W 013°28'714.3
2017-Nov-10 04:59N 30°45' W 013°22'714.4
2017-Nov-10 04:30N 30°50' W 013°17'814.4
2017-Nov-10 03:58N 30°55' W 013°10'1814.6
2017-Nov-10 02:46N 31°09' W 012°57'614.0
2017-Nov-10 02:21N 31°13' W 012°53'13514.4
2017-Nov-09 16:55N 32°50' W 011°00'615.0
2017-Nov-09 16:31N 32°54' W 010°55'815.1
2017-Nov-09 16:00N 32°59' W 010°49'1615.2
2017-Nov-09 14:55N 33°11' W 010°34'213 4.6
2017-Nov-07 16:28N 35°41' W 007°32'55212.9
2017-Nov-05 21:32N 28°44' W 014°39'114.0
2017-Nov-05 21:28N 28°43' W 014°40'714.0
2017-Nov-05 21:00N 28°38' W 014°45'714.1
2017-Nov-05 20:30N 28°34' W 014°51'714.3
2017-Nov-05 20:00N 28°29' W 014°57'714.3
2017-Nov-05 19:30N 28°24' W 015°03'714.4
2017-Nov-05 19:00N 28°19' W 015°09'714.4
2017-Nov-05 18:30N 28°14' W 015°15'713.8
2017-Nov-05 18:00N 28°09' W 015°20'4 7.8
2017-Nov-05 17:30N 28°08' W 015°25'1 1.9
2017-Nov-05 17:00N 28°09' W 015°25'0 0.0
2017-Nov-05 16:30N 28°09' W 015°25'0 0.0
2017-Nov-05 16:00N 28°09' W 015°25'0 0.0
2017-Nov-05 15:30N 28°09' W 015°25'0 0.0
2017-Nov-05 15:00N 28°09' W 015°25'0 0.0
2017-Nov-05 14:21N 28°09' W 015°25'0 0.0
2017-Nov-05 13:51N 28°09' W 015°25'0 0.0
2017-Nov-05 13:24N 28°09' W 015°25'0 0.0
2017-Nov-05 12:54N 28°09' W 015°25'0 0.0
2017-Nov-05 12:24N 28°09' W 015°25'0 0.0
2017-Nov-05 11:54N 28°09' W 015°25'0 0.0
2017-Nov-05 11:24N 28°09' W 015°25'0 0.0
2017-Nov-05 10:54N 28°09' W 015°25'0 0.0
2017-Nov-05 10:26N 28°09' W 015°25'0 0.0
2017-Nov-05 09:56N 28°09' W 015°25'0 0.0
2017-Nov-05 09:29N 28°09' W 015°25'0 0.0
2017-Nov-05 08:59N 28°09' W 015°25'0 0.0
2017-Nov-05 08:29N 28°09' W 015°25'0 0.0
2017-Nov-05 08:00N 28°09' W 015°25'2 3.7
2017-Nov-05 07:30N 28°07' W 015°24'2 3.4
2017-Nov-05 07:00N 28°06' W 015°23'1 1.5
2017-Nov-05 06:30N 28°07' W 015°23'4 7.8
2017-Nov-05 06:00N 28°11' W 015°22'4 8.1
2017-Nov-05 05:30N 28°13' W 015°26'4 8.7
2017-Nov-05 05:00N 28°14' W 015°31'4 8.9
2017-Nov-05 04:30N 28°14' W 015°36'5 9.0
2017-Nov-05 04:00N 28°14' W 015°41'5 9.4
2017-Nov-05 03:30N 28°14' W 015°46'5 9.6
2017-Nov-05 03:00N 28°15' W 015°52'5 9.1
2017-Nov-05 02:29N 28°16' W 015°57'4 9.1
2017-Nov-05 02:00N 28°19' W 016°01'5 9.0
2017-Nov-05 01:29N 28°22' W 016°05'7 9.1
2017-Nov-05 00:44N 28°26' W 016°11'3 9.1
2017-Nov-05 00:27N 28°28' W 016°13'2 1.2
2017-Nov-04 23:10N 28°29' W 016°14'0 0.1
2017-Nov-04 22:52N 28°29' W 016°14'0 0.1
2017-Nov-04 22:28N 28°29' W 016°14'0 0.0
2017-Nov-04 21:43N 28°29' W 016°14'0 0.0
2017-Nov-04 21:10N 28°29' W 016°14'0 0.0
2017-Nov-04 20:58N 28°29' W 016°14'0 0.3
2017-Nov-04 20:28N 28°29' W 016°14'2 3.9
2017-Nov-04 19:59N 28°28' W 016°13'5 9.9
2017-Nov-04 19:30N 28°27' W 016°07'713.6
2017-Nov-04 19:00N 28°26' W 015°60'714.6
2017-Nov-04 18:30N 28°30' W 015°53'814.9
2017-Nov-04 18:00N 28°35' W 015°47'715.0
2017-Nov-04 17:30N 28°41' W 015°41'815.1
2017-Nov-04 17:00N 28°46' W 015°35'815.1
2017-Nov-04 16:30N 28°52' W 015°29'815.1
2017-Nov-04 16:00N 28°57' W 015°23'815.3
2017-Nov-04 15:30N 29°02' W 015°17'  
Track history (hours):
 
Tides and Currents Weather Stations Pressure Air Temp Water Temp Dewpoint Dewpoint Depression Visibility Wind Speed Wind Dir Waves Ship Positions

Romy Trader

Last reported at 2017-Nov-12 20:27 UTC. Time now 2017-Nov-18 10:31 UTC.
Position N 31°33' W 011°54'.

Length 132 m; draft 5.5 m.

Type: Ship. MMSI: 236576000.

Date/timePositionNaut miles runAvg speedWind from/ knotsBaromVisibWave heightAir tempDewpointWater temp
2017-Nov-12 20:27N 31°33' W 011°54'4112.1
2017-Nov-12 17:04N 31°02' W 012°26'112.4
2017-Nov-12 17:00N 31°02' W 012°27'612.3
2017-Nov-12 16:30N 30°57' W 012°31'812.4
2017-Nov-12 15:53N 30°51' W 012°37'3512.5
2017-Nov-12 13:05N 30°25' W 013°04'312.6
2017-Nov-12 12:50N 30°23' W 013°07'412.4
2017-Nov-12 12:30N 30°20' W 013°10'612.4
2017-Nov-12 12:00N 30°16' W 013°15'612.5
2017-Nov-12 11:30N 30°11' W 013°19'612.7
2017-Nov-12 11:00N 30°06' W 013°24'712.7
2017-Nov-12 10:28N 30°00' W 013°29'612.9
2017-Nov-12 10:00N 29°56' W 013°33'4212.6
2017-Nov-12 06:42N 29°25' W 014°05'312.4
2017-Nov-12 06:30N 29°23' W 014°07'612.4
2017-Nov-12 06:00N 29°18' W 014°12'612.1
2017-Nov-12 05:30N 29°14' W 014°17'611.8
2017-Nov-12 05:00N 29°09' W 014°21'611.8
2017-Nov-12 04:30N 29°05' W 014°25'712.1
2017-Nov-12 03:58N 28°60' W 014°30'612.0
2017-Nov-12 03:30N 28°56' W 014°35'611.4
2017-Nov-12 03:00N 28°52' W 014°39'611.5
2017-Nov-12 02:30N 28°47' W 014°43'611.3
2017-Nov-12 02:00N 28°43' W 014°48'611.3
2017-Nov-12 01:30N 28°39' W 014°52'611.2
2017-Nov-12 01:00N 28°35' W 014°56'611.6
2017-Nov-12 00:30N 28°30' W 015°00'611.6
2017-Nov-12 00:00N 28°26' W 015°05'611.9
2017-Nov-11 23:30N 28°21' W 015°09'611.9
2017-Nov-11 23:00N 28°17' W 015°14'611.9
2017-Nov-11 22:30N 28°12' W 015°18'612.1
2017-Nov-11 22:00N 28°08' W 015°23'2 3.3
2017-Nov-11 21:19N 28°09' W 015°25'0 0.0
2017-Nov-11 20:49N 28°09' W 015°25'0 0.0
2017-Nov-11 20:16N 28°09' W 015°25'0 0.0
2017-Nov-11 19:52N 28°09' W 015°25'0 0.0
2017-Nov-11 19:22N 28°09' W 015°25'0 0.0
2017-Nov-11 18:52N 28°09' W 015°25'0 0.0
2017-Nov-11 18:22N 28°09' W 015°25'0 0.0
2017-Nov-11 17:52N 28°09' W 015°25'0 0.0
2017-Nov-11 17:22N 28°09' W 015°25'0 0.0
2017-Nov-11 16:55N 28°09' W 015°25'0 0.0
2017-Nov-11 16:25N 28°09' W 015°25'0 0.0
2017-Nov-11 15:55N 28°09' W 015°25'0 0.0
2017-Nov-11 15:25N 28°09' W 015°25'0 0.0
2017-Nov-11 14:55N 28°09' W 015°25'0 0.0
2017-Nov-11 14:25N 28°09' W 015°25'0 0.0
2017-Nov-11 13:58N 28°09' W 015°25'0 0.0
2017-Nov-11 13:28N 28°09' W 015°25'0 0.0
2017-Nov-11 12:58N 28°09' W 015°25'0 0.0
2017-Nov-11 12:28N 28°09' W 015°25'0 0.0
2017-Nov-11 11:58N 28°09' W 015°25'0 0.0
2017-Nov-11 11:28N 28°09' W 015°25'0 0.0
2017-Nov-11 10:58N 28°09' W 015°25'0 0.0
2017-Nov-11 10:28N 28°09' W 015°25'0 0.0
2017-Nov-11 09:58N 28°09' W 015°25'0 0.0
2017-Nov-11 09:28N 28°09' W 015°25'0 0.0
2017-Nov-11 08:58N 28°09' W 015°25'0 0.0
2017-Nov-11 08:28N 28°09' W 015°25'0 0.0
2017-Nov-11 07:59N 28°09' W 015°25'1 2.5
2017-Nov-11 07:30N 28°08' W 015°25'3 6.0
2017-Nov-11 07:00N 28°06' W 015°22'1 1.8
2017-Nov-11 06:30N 28°07' W 015°21'4 7.0
2017-Nov-11 06:00N 28°10' W 015°22'4 8.0
2017-Nov-11 05:30N 28°13' W 015°26'510.7
2017-Nov-11 05:01N 28°14' W 015°31'5 9.2
2017-Nov-11 04:31N 28°15' W 015°36'5 9.0
2017-Nov-11 04:00N 28°17' W 015°41'4 8.8
2017-Nov-11 03:30N 28°18' W 015°46'4 8.9
2017-Nov-11 03:00N 28°20' W 015°51'5 9.6
2017-Nov-11 02:30N 28°21' W 015°56'510.0
2017-Nov-11 02:00N 28°23' W 016°01'5 9.7
2017-Nov-11 01:30N 28°25' W 016°06'5 9.4
2017-Nov-11 01:00N 28°27' W 016°11'3 0.6
2017-Nov-10 20:07N 28°29' W 016°14'2510.4
2017-Nov-10 17:41N 28°36' W 015°46'314.1
2017-Nov-10 17:30N 28°38' W 015°44'714.2
2017-Nov-10 17:01N 28°43' W 015°39'714.2
2017-Nov-10 16:30N 28°48' W 015°33'714.0
2017-Nov-10 16:00N 28°53' W 015°27'713.9
2017-Nov-10 15:30N 28°58' W 015°22'713.8
2017-Nov-10 14:58N 29°04' W 015°16'2314.0
2017-Nov-10 13:18N 29°21' W 014°58'814.0
2017-Nov-10 12:45N 29°26' W 014°52'714.1
2017-Nov-10 12:17N 29°31' W 014°46'414.1
2017-Nov-10 12:00N 29°34' W 014°43'814.1
2017-Nov-10 11:28N 29°39' W 014°37'714.2
2017-Nov-10 11:00N 29°44' W 014°32'914.3
2017-Nov-10 10:24N 29°50' W 014°25'614.2
2017-Nov-10 10:00N 29°54' W 014°20'714.1
2017-Nov-10 09:31N 29°59' W 014°14'1014.1
2017-Nov-10 08:49N 30°05' W 014°06'614.1
2017-Nov-10 08:25N 30°10' W 014°02'614.1
2017-Nov-10 08:00N 30°14' W 013°57'714.1
2017-Nov-10 07:30N 30°19' W 013°52'714.1
2017-Nov-10 07:00N 30°24' W 013°46'714.5
2017-Nov-10 06:30N 30°29' W 013°40'814.6
2017-Nov-10 05:59N 30°35' W 013°34'714.8
2017-Nov-10 05:29N 30°40' W 013°28'714.3
2017-Nov-10 04:59N 30°45' W 013°22'714.4
2017-Nov-10 04:30N 30°50' W 013°17'814.4
2017-Nov-10 03:58N 30°55' W 013°10'1814.6
2017-Nov-10 02:46N 31°09' W 012°57'614.0
2017-Nov-10 02:21N 31°13' W 012°53'13514.4
2017-Nov-09 16:55N 32°50' W 011°00'615.0
2017-Nov-09 16:31N 32°54' W 010°55'815.1
2017-Nov-09 16:00N 32°59' W 010°49'1615.2
2017-Nov-09 14:55N 33°11' W 010°34'213 4.6
2017-Nov-07 16:28N 35°41' W 007°32'55212.9
2017-Nov-05 21:32N 28°44' W 014°39'114.0
2017-Nov-05 21:28N 28°43' W 014°40'714.0
2017-Nov-05 21:00N 28°38' W 014°45'714.1
2017-Nov-05 20:30N 28°34' W 014°51'714.3
2017-Nov-05 20:00N 28°29' W 014°57'714.3
2017-Nov-05 19:30N 28°24' W 015°03'714.4
2017-Nov-05 19:00N 28°19' W 015°09'714.4
2017-Nov-05 18:30N 28°14' W 015°15'713.8
2017-Nov-05 18:00N 28°09' W 015°20'4 7.8
2017-Nov-05 17:30N 28°08' W 015°25'1 1.9
2017-Nov-05 17:00N 28°09' W 015°25'0 0.0
2017-Nov-05 16:30N 28°09' W 015°25'0 0.0
2017-Nov-05 16:00N 28°09' W 015°25'0 0.0
2017-Nov-05 15:30N 28°09' W 015°25'0 0.0
2017-Nov-05 15:00N 28°09' W 015°25'0 0.0
2017-Nov-05 14:21N 28°09' W 015°25'0 0.0
2017-Nov-05 13:51N 28°09' W 015°25'0 0.0
2017-Nov-05 13:24N 28°09' W 015°25'0 0.0
2017-Nov-05 12:54N 28°09' W 015°25'0 0.0
2017-Nov-05 12:24N 28°09' W 015°25'0 0.0
2017-Nov-05 11:54N 28°09' W 015°25'0 0.0
2017-Nov-05 11:24N 28°09' W 015°25'0 0.0
2017-Nov-05 10:54N 28°09' W 015°25'0 0.0
2017-Nov-05 10:26N 28°09' W 015°25'0 0.0
2017-Nov-05 09:56N 28°09' W 015°25'0 0.0
2017-Nov-05 09:29N 28°09' W 015°25'0 0.0
2017-Nov-05 08:59N 28°09' W 015°25'0 0.0
2017-Nov-05 08:29N 28°09' W 015°25'0 0.0
2017-Nov-05 08:00N 28°09' W 015°25'2 3.7
2017-Nov-05 07:30N 28°07' W 015°24'2 3.4
2017-Nov-05 07:00N 28°06' W 015°23'1 1.5
2017-Nov-05 06:30N 28°07' W 015°23'4 7.8
2017-Nov-05 06:00N 28°11' W 015°22'4 8.1
2017-Nov-05 05:30N 28°13' W 015°26'4 8.7
2017-Nov-05 05:00N 28°14' W 015°31'4 8.9
2017-Nov-05 04:30N 28°14' W 015°36'5 9.0
2017-Nov-05 04:00N 28°14' W 015°41'5 9.4
2017-Nov-05 03:30N 28°14' W 015°46'5 9.6
2017-Nov-05 03:00N 28°15' W 015°52'5 9.1
2017-Nov-05 02:29N 28°16' W 015°57'4 9.1
2017-Nov-05 02:00N 28°19' W 016°01'5 9.0
2017-Nov-05 01:29N 28°22' W 016°05'7 9.1
2017-Nov-05 00:44N 28°26' W 016°11'3 9.1
2017-Nov-05 00:27N 28°28' W 016°13'2 1.2
2017-Nov-04 23:10N 28°29' W 016°14'0 0.1
2017-Nov-04 22:52N 28°29' W 016°14'0 0.1
2017-Nov-04 22:28N 28°29' W 016°14'0 0.0
2017-Nov-04 21:43N 28°29' W 016°14'0 0.0
2017-Nov-04 21:10N 28°29' W 016°14'0 0.0
2017-Nov-04 20:58N 28°29' W 016°14'0 0.3
2017-Nov-04 20:28N 28°29' W 016°14'2 3.9
2017-Nov-04 19:59N 28°28' W 016°13'5 9.9
2017-Nov-04 19:30N 28°27' W 016°07'713.6
2017-Nov-04 19:00N 28°26' W 015°60'714.6
2017-Nov-04 18:30N 28°30' W 015°53'814.9
2017-Nov-04 18:00N 28°35' W 015°47'715.0
2017-Nov-04 17:30N 28°41' W 015°41'815.1
2017-Nov-04 17:00N 28°46' W 015°35'815.1
2017-Nov-04 16:30N 28°52' W 015°29'815.1
2017-Nov-04 16:00N 28°57' W 015°23'815.3
2017-Nov-04 15:30N 29°02' W 015°17'  

Dump ship's entire track history